Dades meteomassalio
Diari Summary for Agost 28, 2017 Units:  English    Metric   Both
« Previous Day
Next Day »
Diari Semanal Mensual Anual Personalitzat
  Maxima: Minima: Mijana:
Temperatura: TemperatureC °F 21.2 °F 26.3 °F
Rosada: DewpointC °F 15.3 °F 18.6 °F
Humitat: Humidity % 35 % 63 %
Velocitat del vent: WindSpeedKMH mph 0.0 mph 10.3 mph
Racha vent: WindSpeedGustKMH mph - -
Vent:- - SSW
Pressio: PressurehPa in 1013.1 in -
Pluja: 0.0 in    
Historical Graphs
 
 
Tabular Data for Agost 28, 2017
Time Temperature Dew Point Pressure Wind Wind Speed Wind Gust Humidity Rainfall Rate (Hourly) solar Conditions
TemperatureC °F DewpointC °F PressurehPa in Calm     Humidity % HourlyPrecipMM in SolarRadiationWatts/m^2 W/m2 Conditions
16:52 32.8 °F 15.3 °F 1015.1 in ESE 6.4 mph 6.4 mph 35 % 0.0 in 842.0 W/m2 OVC
16:53 32.8 °F 15.3 °F 1015.1 in East 11.3 mph 11.3 mph 35 % 0.0 in 842.0 W/m2 OVC
16:58 32.9 °F 15.4 °F 1014.8 in SE 13.0 mph 13.0 mph 35 % 0.0 in 842.0 W/m2 CLR
17:03 32.8 °F 15.3 °F 1014.4 in ESE 16.7 mph 16.7 mph 35 % 0.0 in 218.0 W/m2 CLR
17:08 32.6 °F 15.6 °F 1014.4 in SSE 16.7 mph 16.7 mph 36 % 0.0 in 241.0 W/m2 CLR
17:13 32.4 °F 15.8 °F 1014.1 in ENE 9.3 mph 9.3 mph 37 % 0.0 in 232.0 W/m2 CLR
17:18 32.3 °F 16.2 °F 1013.8 in ESE 7.4 mph   38 % 0.0 in 218.0 W/m2 CLR
17:23 32.1 °F 16.4 °F 1013.8 in ESE 14.8 mph 14.8 mph 39 % 0.0 in 178.0 W/m2 CLR
17:28 31.8 °F 16.6 °F 1013.8 in ENE 16.7 mph 16.7 mph 40 % 0.0 in 155.0 W/m2 CLR
17:33 31.7 °F 16.4 °F 1013.8 in East 9.3 mph 9.3 mph 40 % 0.0 in 128.0 W/m2 CLR
17:38 31.6 °F 16.4 °F 1013.4 in ESE 14.8 mph 14.8 mph 40 % 0.0 in 130.0 W/m2 CLR
17:43 31.6 °F 16.3 °F 1013.4 in ESE 6.4 mph 6.4 mph 40 % 0.0 in 128.0 W/m2 CLR
17:48 31.5 °F 16.3 °F 1013.4 in ESE 11.1 mph 11.1 mph 40 % 0.0 in 132.0 W/m2 CLR
17:53 31.5 °F 16.7 °F 1013.1 in ESE 6.4 mph 6.4 mph 41 % 0.0 in 135.0 W/m2 CLR
17:58 31.5 °F 16.7 °F 1013.1 in SE 5.6 mph 5.6 mph 41 % 0.0 in 142.0 W/m2 CLR
18:03 31.5 °F 19.5 °F 1013.1 in WSW 17.7 mph 17.7 mph 49 % 0.0 in 146.0 W/m2 CLR
18:08 30.8 °F 20.4 °F 1013.1 in WSW 5.6 mph   54 % 0.0 in 132.0 W/m2 CLR
18:13 30.3 °F 20.3 °F 1013.1 in WNW 12.9 mph 12.9 mph 55 % 0.0 in 134.0 W/m2 CLR
18:18 29.8 °F 20.1 °F 1013.1 in West 17.7 mph 17.7 mph 56 % 0.0 in 134.0 W/m2 CLR
18:23 29.2 °F 19.8 °F 1013.1 in West 11.1 mph 11.1 mph 57 % 0.0 in 137.0 W/m2 CLR
18:28 27.8 °F 18.8 °F 1013.1 in WSW 14.5 mph 14.5 mph 58 % 0.0 in 144.0 W/m2 CLR
18:33 28.4 °F 19.4 °F 1013.1 in West 18.5 mph 18.5 mph 58 % 0.0 in 158.0 W/m2 CLR
18:38 28.3 °F 19.3 °F 1013.1 in WSW 5.6 mph 8.5 mph 58 % 0.0 in 160.0 W/m2 CLR
18:44 28.1 °F 18.7 °F 1013.1 in Calm     57 % 0.0 in 109.0 W/m2 OVC
18:49 27.9 °F 18.6 °F 1013.1 in Calm     57 % 0.0 in 97.0 W/m2 CLR
18:54 27.7 °F 18.7 °F 1013.1 in Calm     58 % 0.0 in 93.0 W/m2 CLR
18:59 27.6 °F 18.9 °F 1013.1 in NW 8.0 mph 8.0 mph 59 % 0.0 in 95.0 W/m2 CLR
19:04 27.4 °F 19.2 °F 1013.1 in WNW 3.7 mph   61 % 0.0 in 93.0 W/m2 CLR
19:09 27.3 °F 19.1 °F 1013.1 in WNW 7.4 mph 7.4 mph 61 % 0.0 in 81.0 W/m2 CLR
19:14 27.1 °F 19.2 °F 1013.1 in Calm     62 % 0.0 in 63.0 W/m2 FEW
19:19 26.9 °F 19.0 °F 1013.1 in West 5.6 mph   62 % 0.0 in 42.0 W/m2 FEW
19:24 26.8 °F 19.2 °F 1013.1 in WNW 6.4 mph 6.4 mph 63 % 0.0 in 33.0 W/m2 SCT
19:30 26.7 °F 19.3 °F 1013.1 in Calm     64 % 0.0 in 35.0 W/m2 BKN
19:35 26.6 °F 19.2 °F 1013.1 in Calm     64 % 0.0 in 37.0 W/m2 BKN
19:40 26.6 °F 19.4 °F 1013.1 in Calm     65 % 0.0 in 33.0 W/m2 BKN
19:45 26.4 °F 19.3 °F 1013.1 in Calm     65 % 0.0 in 25.0 W/m2 BKN
19:50 26.4 °F 19.3 °F 1013.1 in Calm     65 % 0.0 in 18.0 W/m2 BKN
19:55 26.4 °F 19.3 °F 1013.1 in Calm     65 % 0.0 in 14.0 W/m2 BKN
20:00 26.3 °F 19.2 °F 1013.1 in Calm     65 % 0.0 in 12.0 W/m2 BKN
20:05 26.3 °F 19.4 °F 1013.1 in Calm     66 % 0.0 in 12.0 W/m2 BKN
20:10 26.2 °F 19.3 °F 1013.1 in Calm     66 % 0.0 in 11.0 W/m2 BKN
20:15 26.1 °F 19.4 °F 1013.1 in Calm     67 % 0.0 in 7.0 W/m2 BKN
20:20 26.0 °F 19.4 °F 1013.1 in Calm     67 % 0.0 in 0.0 W/m2 OVC
20:25 25.9 °F 19.6 °F 1013.1 in Calm     68 % 0.0 in 0.0 W/m2 OVC
20:30 25.9 °F 19.8 °F 1013.1 in Calm     69 % 0.0 in 0.0 W/m2 OVC
20:35 25.8 °F 19.7 °F 1013.1 in Calm     69 % 0.0 in 0.0 W/m2 OVC
20:40 25.8 °F 19.9 °F 1013.1 in Calm     70 % 0.0 in 0.0 W/m2 OVC
20:45 25.7 °F 20.2 °F 1013.1 in Calm     72 % 0.0 in 0.0 W/m2 OVC
20:50 25.6 °F 20.1 °F 1013.1 in Calm     72 % 0.0 in 0.0 W/m2 CLR
20:55 25.4 °F 20.0 °F 1013.1 in Calm     72 % 0.0 in 0.0 W/m2 CLR
21:00 25.3 °F 20.2 °F 1013.1 in Calm     73 % 0.0 in 0.0 W/m2 CLR
21:05 25.3 °F 20.3 °F 1013.1 in Calm     74 % 0.0 in 0.0 W/m2 CLR
21:10 25.2 °F 20.4 °F 1013.4 in Calm     75 % 0.0 in 0.0 W/m2 CLR
21:15 25.0 °F 20.9 °F 1013.4 in Calm     78 % 0.0 in 0.0 W/m2 CLR
21:20 24.8 °F 20.7 °F 1013.8 in Calm     78 % 0.0 in 0.0 W/m2 CLR
21:30 24.6 °F 20.4 °F 1014.1 in Calm     78 % 0.0 in 0.0 W/m2 CLR
21:35 24.6 °F 20.7 °F 1014.1 in Calm     79 % 0.0 in 0.0 W/m2 CLR
21:40 24.5 °F 20.6 °F 1014.4 in Calm     79 % 0.0 in 0.0 W/m2 CLR
21:45 24.5 °F 20.6 °F 1014.4 in Calm     79 % 0.0 in 0.0 W/m2 CLR
21:50 24.4 °F 19.9 °F 1014.4 in SW 1.9 mph 1.9 mph 76 % 0.0 in 0.0 W/m2 CLR
21:55 24.5 °F 19.8 °F 1014.8 in SW 5.6 mph 5.6 mph 75 % 0.0 in 0.0 W/m2 CLR
22:14 24.6 °F 19.6 °F 1015.1 in SW 14.8 mph 14.8 mph 74 % 0.0 in 0.0 W/m2 CLR
22:19 24.4 °F 19.3 °F 1015.1 in SSW 14.8 mph 14.8 mph 73 % 0.0 in 0.0 W/m2 CLR
22:24 24.4 °F 19.0 °F 1015.5 in WSW 17.7 mph 17.7 mph 72 % 0.0 in 0.0 W/m2 CLR
22:29 24.3 °F 18.7 °F 1015.8 in West 30.6 mph 30.6 mph 71 % 0.0 in 0.0 W/m2 CLR
22:34 24.2 °F 18.6 °F 1015.8 in WSW 32.2 mph 32.2 mph 71 % 0.0 in 0.0 W/m2 CLR
22:39 23.9 °F 18.8 °F 1016.1 in WSW 25.9 mph 25.9 mph 73 % 0.0 in 0.0 W/m2 CLR
22:45 23.7 °F 18.6 °F 1016.1 in WSW 31.5 mph 31.5 mph 73 % 0.0 in 0.0 W/m2 CLR
22:50 23.5 °F 18.6 °F 1016.1 in SW 27.8 mph 27.8 mph 74 % 0.0 in 0.0 W/m2 CLR
22:55 23.3 °F 18.6 °F 1016.1 in WSW 33.3 mph 33.3 mph 75 % 0.0 in 0.0 W/m2 CLR
23:00 23.1 °F 18.8 °F 1016.1 in SW 33.3 mph 33.3 mph 77 % 0.0 in 0.0 W/m2 CLR
23:05 22.8 °F 18.7 °F 1016.1 in SW 35.2 mph 35.2 mph 78 % 0.0 in 0.0 W/m2 CLR
23:10 22.5 °F 18.7 °F 1016.5 in SW 24.1 mph 24.1 mph 79 % 0.0 in 0.0 W/m2 CLR
23:15 22.3 °F 18.8 °F 1016.5 in SW 20.4 mph 20.4 mph 81 % 0.0 in 0.0 W/m2 CLR
23:20 22.1 °F 18.8 °F 1016.5 in WSW 14.8 mph 14.8 mph 82 % 0.0 in 0.0 W/m2 CLR
23:25 21.8 °F 18.8 °F 1016.8 in WSW 24.1 mph 24.1 mph 83 % 0.0 in 0.0 W/m2 CLR
23:30 21.6 °F 19.0 °F 1016.8 in SW 27.4 mph 27.4 mph 85 % 0.0 in 0.0 W/m2 CLR
23:35 21.5 °F 18.9 °F 1017.2 in SW 22.5 mph 22.5 mph 85 % 0.0 in 0.0 W/m2 CLR
23:40 21.4 °F 18.8 °F 1017.2 in SW 31.5 mph 31.5 mph 85 % 0.0 in 0.0 W/m2 CLR
23:45 21.3 °F 18.7 °F 1017.2 in WSW 29.0 mph 29.0 mph 85 % 0.0 in 0.0 W/m2 CLR
23:50 21.2 °F 18.6 °F 1017.2 in SW 27.8 mph 27.8 mph 85 % 0.0 in 0.0 W/m2 CLR
23:55 21.2 °F 18.6 °F 1017.2 in WSW 24.1 mph 24.1 mph 85 % 0.0 in 0.0 W/m2 CLR
Lo Temps de Massalio
Compliments of Weather Underground - 512 kb